Time;durP1;ratioP1;P1;durP2;ratioP2;P2;SDS_P1;SDS_P2;PMS_P1;PMS_P2;Temp;Humidity;BMP_temperature;BMP_pressure;BME280_temperature;BME280_humidity;BME280_pressure;Samples;Min_cycle;Max_cycle;Signal;HPM_P1;HPM_P2
2023/02/22 00:01:34;;;;;;;38.40;14.07;;;7.90;99.90;;;;;;4879690;29;20032;-83
2023/02/22 00:04:01;;;;;;;43.65;13.15;;;7.90;99.90;;;;;;4881129;29;20044;-83
2023/02/22 00:06:29;;;;;;;44.78;14.05;;;7.90;99.90;;;;;;4878143;29;20047;-84
2023/02/22 00:08:56;;;;;;;45.15;16.65;;;7.90;99.90;;;;;;4880093;29;20044;-83
2023/02/22 00:11:25;;;;;;;43.35;15.25;;;7.80;99.90;;;;;;4880682;29;20064;-83
2023/02/22 00:13:50;;;;;;;50.38;16.00;;;7.70;99.90;;;;;;4876155;29;20101;-83
2023/02/22 00:16:19;;;;;;;40.40;12.98;;;7.60;99.90;;;;;;4880101;29;20433;-84
2023/02/22 00:18:48;;;;;;;40.72;13.40;;;7.70;99.90;;;;;;4879496;29;20049;-84
2023/02/22 00:21:18;;;;;;;43.30;14.05;;;7.70;99.90;;;;;;4878867;29;20078;-84
2023/02/22 00:23:46;;;;;;;41.53;14.10;;;7.70;99.90;;;;;;4878313;29;20514;-83
2023/02/22 00:26:18;;;;;;;38.50;15.18;;;7.70;99.90;;;;;;4880070;29;20017;-82
2023/02/22 00:28:47;;;;;;;37.53;13.02;;;7.70;99.90;;;;;;4875995;29;20040;-84
2023/02/22 00:31:13;;;;;;;37.88;13.80;;;7.70;99.90;;;;;;4874094;29;20033;-84
2023/02/22 00:33:43;;;;;;;48.28;15.52;;;7.70;99.90;;;;;;4863561;29;20116;-84
2023/02/22 00:36:10;;;;;;;43.60;15.38;;;7.60;99.90;;;;;;4875256;29;20041;-79
2023/02/22 00:38:36;;;;;;;41.83;14.27;;;7.60;99.90;;;;;;4877214;29;20480;-83
2023/02/22 00:41:02;;;;;;;41.90;15.63;;;7.60;99.90;;;;;;4871141;29;20172;-83
2023/02/22 00:43:38;;;;;;;45.58;13.65;;;7.70;99.90;;;;;;4874411;29;20045;-84
2023/02/22 00:46:06;;;;;;;46.05;14.98;;;7.80;99.90;;;;;;4860304;29;20028;-83
2023/02/22 00:48:31;;;;;;;;;;;7.80;99.90;;;;;;4868975;29;20505;-83
2023/02/22 00:50:57;;;;;;;34.30;13.38;;;7.80;99.90;;;;;;4877789;29;19912;-84
2023/02/22 00:53:24;;;;;;;41.25;13.70;;;7.80;99.90;;;;;;4878867;29;20109;-84
2023/02/22 00:55:51;;;;;;;39.40;14.00;;;7.70;99.90;;;;;;4879319;29;20036;-84
2023/02/22 00:58:17;;;;;;;38.03;14.95;;;7.60;99.90;;;;;;4878939;29;20024;-83
2023/02/22 01:00:44;;;;;;;38.88;11.65;;;7.60;99.90;;;;;;4879785;29;20037;-84
2023/02/22 01:03:12;;;;;;;37.95;14.13;;;7.60;99.90;;;;;;4879919;29;20029;-83
2023/02/22 01:05:38;;;;;;;40.92;14.57;;;7.70;99.90;;;;;;4879789;29;20064;-84
2023/02/22 01:08:05;;;;;;;32.47;13.30;;;7.70;99.90;;;;;;4879714;29;20025;-84
2023/02/22 01:10:32;;;;;;;37.67;15.02;;;7.60;99.90;;;;;;4879617;29;20431;-84
2023/02/22 01:12:59;;;;;;;42.95;14.18;;;7.60;99.90;;;;;;4879595;29;20025;-84
2023/02/22 01:15:29;;;;;;;39.00;13.18;;;7.60;99.90;;;;;;4879531;29;20382;-84
2023/02/22 01:17:57;;;;;;;37.97;14.93;;;7.50;99.90;;;;;;4879140;29;20033;-85
2023/02/22 01:20:24;;;;;;;43.03;15.05;;;7.50;99.90;;;;;;4890661;29;20095;-84
2023/02/22 01:22:52;;;;;;;45.20;14.52;;;7.50;99.90;;;;;;4897935;29;20024;-84
2023/02/22 01:25:20;;;;;;;35.25;13.25;;;7.50;99.90;;;;;;4875489;29;20097;-84
2023/02/22 01:27:47;;;;;;;44.42;15.57;;;7.60;99.90;;;;;;4878054;29;20027;-83
2023/02/22 01:30:14;;;;;;;41.72;14.80;;;7.60;99.90;;;;;;4878131;29;20571;-84
2023/02/22 01:32:40;;;;;;;39.63;14.68;;;7.50;99.90;;;;;;4877856;29;20128;-85
2023/02/22 01:35:12;;;;;;;41.22;14.27;;;7.50;99.90;;;;;;4881113;29;20044;-84
2023/02/22 01:37:38;;;;;;;40.05;14.23;;;7.50;99.90;;;;;;4879258;29;20102;-85
2023/02/22 01:40:07;;;;;;;32.40;13.20;;;7.50;99.90;;;;;;4877975;29;20044;-85
2023/02/22 01:42:33;;;;;;;34.05;13.63;;;7.50;99.90;;;;;;4880345;29;20031;-86
2023/02/22 01:45:29;;;;;;;41.90;14.88;;;7.50;99.90;;;;;;4879588;29;20029;-85
2023/02/22 01:48:12;;;;;;;36.38;14.52;;;7.50;99.90;;;;;;4879937;29;20473;-85
2023/02/22 01:50:53;;;;;;;32.78;12.07;;;7.40;99.90;;;;;;4877172;29;20088;-85
2023/02/22 01:53:25;;;;;;;36.92;12.00;;;7.40;99.90;;;;;;4867806;29;20033;-85
2023/02/22 01:55:53;;;;;;;31.52;12.65;;;7.30;99.90;;;;;;4880400;29;20501;-83
2023/02/22 01:58:22;;;;;;;26.77;11.90;;;7.20;99.90;;;;;;4882062;29;20529;-85
2023/02/22 02:00:47;;;;;;;33.90;12.73;;;7.20;99.90;;;;;;4872314;29;20040;-85
2023/02/22 02:03:20;;;;;;;39.47;13.32;;;7.10;99.90;;;;;;4882255;29;20397;-84
2023/02/22 02:05:47;;;;;;;34.30;13.25;;;7.20;99.90;;;;;;4882489;29;20018;-85
2023/02/22 02:08:26;;;;;;;30.67;12.55;;;7.10;99.90;;;;;;4882916;29;20036;-84
2023/02/22 02:10:55;;;;;;;32.60;12.52;;;7.10;99.90;;;;;;4867341;29;20134;-85
2023/02/22 02:13:23;;;;;;;37.72;12.85;;;7.10;99.90;;;;;;4879493;29;20113;-83
2023/02/22 02:15:51;;;;;;;35.67;12.43;;;7.10;99.90;;;;;;4863816;29;20033;-84
2023/02/22 02:18:17;;;;;;;34.28;12.98;;;7.20;99.90;;;;;;4863620;29;20165;-85
2023/02/22 02:21:12;;;;;;;37.92;13.82;;;7.20;99.90;;;;;;4877575;29;20066;-85
2023/02/22 02:23:55;;;;;;;37.58;12.75;;;7.10;99.90;;;;;;4873905;29;20040;-85
2023/02/22 02:26:39;;;;;;;37.97;12.82;;;7.10;99.90;;;;;;4881624;29;20027;-85
2023/02/22 02:29:28;;;;;;;34.72;13.40;;;7.10;99.90;;;;;;4881022;29;20157;-84
2023/02/22 02:32:36;;;;;;;34.67;13.15;;;7.10;99.90;;;;;;4866858;29;20488;-86
2023/02/22 02:35:05;;;;;;;29.80;12.73;;;7.10;99.90;;;;;;4881688;29;20043;-85
2023/02/22 02:38:01;;;;;;;32.67;11.73;;;7.00;99.90;;;;;;4881747;29;20461;-85
2023/02/22 02:40:40;;;;;;;37.45;14.45;;;7.00;99.90;;;;;;4879206;29;20072;-85
2023/02/22 02:43:23;;;;;;;37.40;13.23;;;6.90;99.90;;;;;;4882109;29;20021;-84
2023/02/22 02:46:00;;;;;;;38.33;12.82;;;7.00;99.90;;;;;;4882338;29;20033;-85
2023/02/22 02:48:27;;;;;;;26.63;9.35;;;7.00;99.90;;;;;;4877893;29;20036;-84
2023/02/22 02:50:57;;;;;;;26.42;10.20;;;6.90;99.90;;;;;;4881887;29;20367;-85
2023/02/22 02:53:29;;;;;;;34.97;13.65;;;6.90;99.90;;;;;;4879478;29;20108;-85
2023/02/22 02:55:58;;;;;;;32.42;12.57;;;6.90;99.90;;;;;;4880277;29;20044;-84
2023/02/22 02:58:24;;;;;;;35.65;13.52;;;6.80;99.90;;;;;;4880410;29;20013;-85
2023/02/22 03:00:55;;;;;;;31.55;12.70;;;6.80;99.90;;;;;;4880547;29;20073;-85
2023/02/22 03:03:50;;;;;;;31.60;12.43;;;6.80;99.90;;;;;;4881458;29;20025;-85
2023/02/22 03:07:06;;;;;;;31.17;12.63;;;6.80;99.90;;;;;;4880947;29;20025;-85
2023/02/22 03:09:58;;;;;;;36.80;13.07;;;6.80;99.90;;;;;;4849103;29;20482;-84
2023/02/22 03:12:46;;;;;;;38.88;13.20;;;6.80;99.90;;;;;;4878966;29;20073;-86
2023/02/22 03:15:31;;;;;;;35.47;13.20;;;6.80;99.90;;;;;;4893420;29;20084;-85
2023/02/22 03:18:05;;;;;;;32.95;13.65;;;6.70;99.90;;;;;;4881117;29;20104;-85
2023/02/22 03:20:52;;;;;;;30.80;11.68;;;6.70;99.90;;;;;;4865979;29;20523;-84
2023/02/22 03:23:31;;;;;;;35.92;14.02;;;6.80;99.90;;;;;;4868261;29;20546;-85
2023/02/22 03:26:14;;;;;;;39.17;14.43;;;6.80;99.90;;;;;;4881192;29;20025;-85
2023/02/22 03:28:44;;;;;;;40.08;13.93;;;6.60;99.90;;;;;;4880765;29;20124;-83
2023/02/22 03:31:16;;;;;;;37.05;12.95;;;6.60;99.90;;;;;;4881571;29;20058;-85
2023/02/22 03:34:06;;;;;;;37.83;13.65;;;6.60;99.90;;;;;;4880288;29;20469;-86
2023/02/22 03:36:37;;;;;;;36.38;13.88;;;6.60;99.90;;;;;;4881039;29;20021;-83
2023/02/22 03:39:14;;;;;;;35.10;12.80;;;6.50;99.90;;;;;;4880539;29;20123;-84
2023/02/22 03:41:47;;;;;;;35.22;13.38;;;6.50;99.90;;;;;;4879769;29;20120;-84
2023/02/22 03:44:16;;;;;;;38.85;15.25;;;6.40;99.90;;;;;;4881050;29;20478;-85
2023/02/22 03:46:45;;;;;;;40.92;13.65;;;6.40;99.90;;;;;;4881463;29;20120;-85
2023/02/22 03:49:16;;;;;;;41.97;14.43;;;6.50;99.90;;;;;;4880535;29;20032;-84
2023/02/22 03:51:42;;;;;;;39.97;13.32;;;6.50;99.90;;;;;;4879986;29;20048;-85
2023/02/22 03:54:15;;;;;;;40.85;14.35;;;6.40;99.90;;;;;;4880242;29;20397;-85
2023/02/22 03:57:05;;;;;;;41.42;13.45;;;6.50;99.90;;;;;;4859151;29;20427;-85
2023/02/22 03:59:31;;;;;;;43.00;14.55;;;6.40;99.90;;;;;;4841561;29;20146;-83
2023/02/22 04:01:57;;;;;;;43.13;14.25;;;6.40;99.90;;;;;;4850017;29;20430;-84
2023/02/22 04:04:23;;;;;;;41.25;13.98;;;6.40;99.90;;;;;;4842447;29;20041;-84
2023/02/22 04:06:50;;;;;;;41.35;14.85;;;6.30;99.90;;;;;;4844118;29;20376;-84
2023/02/22 04:09:16;;;;;;;39.53;14.52;;;6.30;99.90;;;;;;4843303;29;20494;-84
2023/02/22 04:11:45;;;;;;;50.38;16.33;;;6.30;99.90;;;;;;4844188;29;20078;-82
2023/02/22 04:14:11;;;;;;;39.45;15.45;;;6.40;99.90;;;;;;4843649;29;20129;-83
2023/02/22 04:16:38;;;;;;;50.90;16.05;;;6.50;99.90;;;;;;4844340;29;20178;-84
2023/02/22 04:19:05;;;;;;;31.73;11.20;;;6.40;99.90;;;;;;4854643;29;20529;-83
2023/02/22 04:21:31;;;;;;;51.08;15.65;;;6.40;99.90;;;;;;4859516;29;20138;-83
2023/02/22 04:23:57;;;;;;;44.08;14.50;;;6.40;99.90;;;;;;4859089;29;20154;-84
2023/02/22 04:26:23;;;;;;;41.38;14.30;;;6.30;99.90;;;;;;4859687;29;20077;-84
2023/02/22 04:28:48;;;;;;;47.17;14.25;;;6.30;99.90;;;;;;4880186;29;20484;-85
2023/02/22 04:31:15;;;;;;;47.10;16.42;;;6.20;99.90;;;;;;4880828;29;20381;-84
2023/02/22 04:33:41;;;;;;;46.97;16.95;;;6.10;99.90;;;;;;4867509;29;20029;-84
2023/02/22 04:36:09;;;;;;;41.20;14.35;;;6.10;99.90;;;;;;4861421;29;20068;-84
2023/02/22 04:38:35;;;;;;;42.55;14.27;;;6.20;99.90;;;;;;4872955;29;20044;-84
2023/02/22 04:41:04;;;;;;;47.50;16.85;;;6.30;99.90;;;;;;4879943;29;20061;-83
2023/02/22 04:43:29;;;;;;;48.20;15.57;;;6.30;99.90;;;;;;4879255;29;20036;-83
2023/02/22 04:45:55;;;;;;;43.22;15.52;;;6.30;99.90;;;;;;4880071;29;20099;-83
2023/02/22 04:48:21;;;;;;;53.75;15.88;;;6.30;99.90;;;;;;4879754;29;20029;-83
2023/02/22 04:50:46;;;;;;;48.15;15.75;;;6.20;99.90;;;;;;4878538;29;20047;-83
2023/02/22 04:53:12;;;;;;;48.13;14.77;;;6.20;99.90;;;;;;4869037;29;20466;-83
2023/02/22 04:55:38;;;;;;;48.90;15.82;;;6.20;99.90;;;;;;4879584;29;20029;-83
2023/02/22 04:58:05;;;;;;;39.17;13.65;;;6.30;99.90;;;;;;4864129;29;20049;-84
2023/02/22 05:00:31;;;;;;;43.50;14.87;;;6.30;99.90;;;;;;4873196;29;20205;-83
2023/02/22 05:02:56;;;;;;;52.17;15.15;;;6.30;99.90;;;;;;4869761;29;20406;-84
2023/02/22 05:05:22;;;;;;;49.25;15.00;;;6.30;99.90;;;;;;4858435;29;20032;-84
2023/02/22 05:07:49;;;;;;;38.75;13.05;;;6.40;99.90;;;;;;4856610;29;20037;-84
2023/02/22 05:10:14;;;;;;;36.50;12.60;;;6.40;99.90;;;;;;4854803;29;20033;-84
2023/02/22 05:12:40;;;;;;;39.70;12.80;;;6.30;99.90;;;;;;4858282;29;20090;-83
2023/02/22 05:15:07;;;;;;;41.00;14.70;;;6.30;99.90;;;;;;4864075;29;20037;-83
2023/02/22 05:17:34;;;;;;;50.67;14.95;;;6.20;99.90;;;;;;4857906;29;20048;-82
2023/02/22 05:20:00;;;;;;;43.17;13.88;;;6.20;99.90;;;;;;4860635;29;20109;-82
2023/02/22 05:22:25;;;;;;;47.67;15.40;;;6.20;99.90;;;;;;4854655;29;20053;-83
2023/02/22 05:24:51;;;;;;;47.75;14.40;;;6.20;99.90;;;;;;4858732;29;20038;-82
2023/02/22 05:27:18;;;;;;;46.92;14.27;;;6.10;99.90;;;;;;4861766;29;20036;-83
2023/02/22 05:29:44;;;;;;;51.77;15.47;;;6.10;99.90;;;;;;4879537;29;20049;-83
2023/02/22 05:32:13;;;;;;;40.70;14.02;;;6.10;99.90;;;;;;4883266;29;20357;-84
2023/02/22 05:34:38;;;;;;;41.00;14.00;;;6.00;99.90;;;;;;4882780;29;20077;-83
2023/02/22 05:37:04;;;;;;;40.17;13.23;;;5.90;99.90;;;;;;4882387;29;20493;-84
2023/02/22 05:39:30;;;;;;;44.97;14.88;;;5.90;99.90;;;;;;4879170;29;20520;-83
2023/02/22 05:41:56;;;;;;;49.35;15.57;;;6.00;99.90;;;;;;4882556;29;20033;-82
2023/02/22 05:44:22;;;;;;;44.10;14.93;;;6.10;99.90;;;;;;4882647;29;20112;-83
2023/02/22 05:46:47;;;;;;;39.78;13.55;;;6.00;99.90;;;;;;4881593;29;20077;-84
2023/02/22 05:49:13;;;;;;;40.38;13.50;;;6.00;99.90;;;;;;4876665;29;20021;-85
2023/02/22 05:51:41;;;;;;;43.00;13.80;;;6.00;99.90;;;;;;4868380;29;20037;-83
2023/02/22 05:54:06;;;;;;;37.97;14.03;;;6.00;99.90;;;;;;4870643;29;20143;-83
2023/02/22 05:56:32;;;;;;;45.65;13.57;;;6.10;99.90;;;;;;4882331;29;20357;-83
2023/02/22 05:58:58;;;;;;;54.35;14.93;;;6.00;99.90;;;;;;4882551;29;20032;-84
2023/02/22 06:01:24;;;;;;;45.40;13.35;;;6.00;99.90;;;;;;4880936;29;20025;-83
2023/02/22 06:03:50;;;;;;;46.95;14.93;;;6.00;99.90;;;;;;4869402;29;20037;-83
2023/02/22 06:06:19;;;;;;;42.45;13.75;;;6.00;99.90;;;;;;4881967;29;20479;-84
2023/02/22 06:08:45;;;;;;;45.83;13.70;;;6.00;99.90;;;;;;4883251;29;20025;-84
2023/02/22 06:11:11;;;;;;;44.60;14.93;;;6.00;99.90;;;;;;4882504;29;20474;-83
2023/02/22 06:13:37;;;;;;;34.33;12.15;;;6.00;99.90;;;;;;4882004;29;20029;-83
2023/02/22 06:16:03;;;;;;;49.85;14.45;;;5.90;99.90;;;;;;4877377;29;20047;-84
2023/02/22 06:18:32;;;;;;;43.15;13.48;;;6.00;99.90;;;;;;4882201;29;20044;-83
2023/02/22 06:20:59;;;;;;;44.05;13.75;;;6.00;99.90;;;;;;4874285;29;20422;-83
2023/02/22 06:23:25;;;;;;;52.58;14.80;;;6.00;99.90;;;;;;4899664;29;20466;-84
2023/02/22 06:25:51;;;;;;;37.97;13.25;;;6.10;99.90;;;;;;4903581;29;20017;-82
2023/02/22 06:28:17;;;;;;;39.20;14.10;;;6.20;99.90;;;;;;4904021;29;20040;-82
2023/02/22 06:30:42;;;;;;;44.67;14.63;;;6.20;99.90;;;;;;4893990;29;20045;-83
2023/02/22 06:33:09;;;;;;;42.50;13.60;;;6.20;99.90;;;;;;4867045;29;20033;-83
2023/02/22 06:35:36;;;;;;;45.47;14.35;;;6.20;99.90;;;;;;4883477;29;20089;-83
2023/02/22 06:38:01;;;;;;;50.10;14.27;;;6.20;99.90;;;;;;4882267;29;20554;-82
2023/02/22 06:40:30;;;;;;;59.15;14.73;;;6.30;99.90;;;;;;4882641;29;20033;-82
2023/02/22 06:42:57;;;;;;;42.30;11.85;;;6.30;99.90;;;;;;4881680;29;20021;-82
2023/02/22 06:45:23;;;;;;;51.63;15.25;;;6.30;99.90;;;;;;4879125;29;20394;-83
2023/02/22 06:47:48;;;;;;;54.08;15.38;;;6.20;99.90;;;;;;4887157;29;20025;-83
2023/02/22 06:50:25;;;;;;;49.40;14.10;;;6.10;99.90;;;;;;4891045;29;20225;-82
2023/02/22 06:52:51;;;;;;;46.50;13.05;;;6.00;99.90;;;;;;4898522;29;20029;-78
2023/02/22 06:55:23;;;;;;;45.33;14.27;;;6.10;99.90;;;;;;4895447;29;20494;-81
2023/02/22 06:57:48;;;;;;;47.75;13.68;;;6.00;99.90;;;;;;4897073;29;20039;-82
2023/02/22 07:00:18;;;;;;;50.17;15.20;;;6.00;99.90;;;;;;4902075;29;20041;-81
2023/02/22 07:02:45;;;;;;;36.17;13.30;;;6.10;99.90;;;;;;4896310;29;20034;-83
2023/02/22 07:05:11;;;;;;;47.92;15.20;;;6.10;99.90;;;;;;4900652;29;20096;-81
2023/02/22 07:07:39;;;;;;;46.47;14.93;;;6.20;99.90;;;;;;4903221;29;20017;-82
2023/02/22 07:10:07;;;;;;;41.60;13.10;;;6.20;99.90;;;;;;4886239;29;20018;-81
2023/02/22 07:12:33;;;;;;;40.50;12.35;;;6.10;99.90;;;;;;4898256;29;20041;-82
2023/02/22 07:14:58;;;;;;;39.50;11.43;;;6.20;99.90;;;;;;4887367;29;20081;-82
2023/02/22 07:17:24;;;;;;;47.25;13.18;;;6.30;99.90;;;;;;4893220;29;20024;-83
2023/02/22 07:19:50;;;;;;;51.03;13.45;;;6.30;99.90;;;;;;4905608;29;20058;-81
2023/02/22 07:22:16;;;;;;;45.05;14.10;;;6.30;99.90;;;;;;4905506;29;20062;-81
2023/02/22 07:24:42;;;;;;;49.10;14.45;;;6.20;99.90;;;;;;4905764;29;20096;-82
2023/02/22 07:27:08;;;;;;;48.17;13.13;;;6.30;99.90;;;;;;4904874;29;20046;-81
2023/02/22 07:29:34;;;;;;;38.17;13.85;;;6.30;99.90;;;;;;4900155;29;20033;-79
2023/02/22 07:32:01;;;;;;;40.92;13.93;;;6.30;99.90;;;;;;4901931;29;20104;-83
2023/02/22 07:34:27;;;;;;;38.00;14.07;;;6.30;99.90;;;;;;4886821;29;20112;-82
2023/02/22 07:36:52;;;;;;;36.42;12.45;;;6.40;99.90;;;;;;4901937;29;20033;-78
2023/02/22 07:39:18;;;;;;;41.85;12.90;;;6.40;99.90;;;;;;4904828;29;20053;-80
2023/02/22 07:41:44;;;;;;;37.92;12.80;;;6.40;99.90;;;;;;4905401;29;20048;-81
2023/02/22 07:44:09;;;;;;;44.28;12.93;;;6.40;99.90;;;;;;4904263;29;20062;-81
2023/02/22 07:46:35;;;;;;;41.85;13.98;;;6.40;99.90;;;;;;4904924;29;20081;-81
2023/02/22 07:49:00;;;;;;;43.75;14.27;;;6.40;99.90;;;;;;4904175;29;20110;-78
2023/02/22 07:51:26;;;;;;;41.25;12.70;;;6.40;99.90;;;;;;4904636;29;20021;-82
2023/02/22 07:53:52;;;;;;;40.08;14.35;;;6.40;99.90;;;;;;4904366;29;20053;-82
2023/02/22 07:56:17;;;;;;;51.72;15.88;;;6.50;99.90;;;;;;4904288;29;20044;-81
2023/02/22 07:58:43;;;;;;;40.67;14.30;;;6.50;99.90;;;;;;4903479;29;20017;-82
2023/02/22 08:01:10;;;;;;;39.78;13.95;;;6.50;99.90;;;;;;4901885;29;20024;-81
2023/02/22 08:03:36;;;;;;;46.90;14.60;;;6.50;99.90;;;;;;4895513;29;20017;-79
2023/02/22 08:06:04;;;;;;;34.75;13.00;;;6.40;99.90;;;;;;4896673;29;20041;-81
2023/02/22 08:08:30;;;;;;;;;;;6.50;99.90;;;;;;4884496;29;20044;-82
2023/02/22 08:10:56;;;;;;;35.78;12.63;;;6.50;99.90;;;;;;4884333;29;19936;-82
2023/02/22 08:13:22;;;;;;;48.28;13.50;;;6.50;99.90;;;;;;4866680;29;20487;-81
2023/02/22 08:15:51;;;;;;;44.53;14.10;;;6.50;99.90;;;;;;4888493;29;20016;-82
2023/02/22 08:18:19;;;;;;;41.67;13.90;;;6.60;99.90;;;;;;4896579;29;20101;-81
2023/02/22 08:20:48;;;;;;;38.90;12.50;;;6.80;99.90;;;;;;4877576;29;20053;-81
2023/02/22 08:23:15;;;;;;;30.67;12.23;;;6.80;99.90;;;;;;4877563;29;20102;-82
2023/02/22 08:25:41;;;;;;;33.40;10.73;;;6.80;99.90;;;;;;4863910;29;20052;-82
2023/02/22 08:28:09;;;;;;;29.85;11.27;;;6.80;99.90;;;;;;4859533;29;20033;-83
2023/02/22 08:30:36;;;;;;;35.28;11.10;;;6.80;99.90;;;;;;4864686;29;20042;-82
2023/02/22 08:33:02;;;;;;;25.17;11.27;;;6.80;99.90;;;;;;4860286;29;20033;-81
2023/02/22 08:35:31;;;;;;;27.98;11.73;;;6.90;99.90;;;;;;4866769;29;20077;-82
2023/02/22 08:37:59;;;;;;;55.92;14.32;;;6.90;99.90;;;;;;4874828;29;20101;-82
2023/02/22 08:40:28;;;;;;;30.58;11.43;;;6.90;99.90;;;;;;4878195;29;20132;-82
2023/02/22 08:42:54;;;;;;;32.03;11.70;;;6.90;99.90;;;;;;4877736;29;20553;-82
2023/02/22 08:45:19;;;;;;;32.58;11.80;;;6.90;99.90;;;;;;4875770;29;20108;-83
2023/02/22 08:47:45;;;;;;;30.58;11.02;;;6.90;99.90;;;;;;4860946;29;20034;-82
2023/02/22 08:50:23;;;;;;;31.13;10.90;;;6.90;99.90;;;;;;4867062;29;20069;-83
2023/02/22 08:52:51;;;;;;;32.13;12.90;;;6.90;99.90;;;;;;4878832;29;20048;-81
2023/02/22 08:55:23;;;;;;;32.75;11.63;;;7.00;99.90;;;;;;4878262;29;20089;-82
2023/02/22 08:57:49;;;;;;;29.13;11.55;;;7.00;99.90;;;;;;4878989;29;20129;-82
2023/02/22 09:00:16;;;;;;;47.15;16.42;;;7.00;99.90;;;;;;4869245;29;20058;-83
2023/02/22 09:02:42;;;;;;;36.97;12.63;;;7.10;99.90;;;;;;4860154;29;20067;-83
2023/02/22 09:05:08;;;;;;;30.13;12.80;;;7.10;99.90;;;;;;4860339;29;20065;-82
2023/02/22 09:07:35;;;;;;;27.38;11.35;;;7.20;99.90;;;;;;4861511;29;20032;-82
2023/02/22 09:10:00;;;;;;;36.15;14.00;;;7.20;99.90;;;;;;4869969;29;20041;-83
2023/02/22 09:12:26;;;;;;;30.00;10.82;;;7.30;99.90;;;;;;4878145;29;20044;-84
2023/02/22 09:14:52;;;;;;;37.30;13.48;;;7.40;99.90;;;;;;4878661;29;20037;-82
2023/02/22 09:17:17;;;;;;;33.33;11.57;;;7.50;99.90;;;;;;4880131;29;20112;-86
2023/02/22 09:19:44;;;;;;;30.17;11.60;;;7.50;99.90;;;;;;4881009;29;20053;-85
2023/02/22 09:22:10;;;;;;;28.15;12.90;;;7.60;99.90;;;;;;4884038;29;20060;-85
2023/02/22 09:24:36;;;;;;;35.42;16.50;;;7.60;99.90;;;;;;4874572;29;20081;-83
2023/02/22 09:27:03;;;;;;;28.88;12.60;;;7.60;99.90;;;;;;4872065;29;20049;-83
2023/02/22 09:29:30;;;;;;;20.47;7.93;;;7.60;99.90;;;;;;4885126;29;20556;-85
2023/02/22 09:31:56;;;;;;;30.73;12.03;;;7.60;99.90;;;;;;4898720;29;20033;-83
2023/02/22 09:34:28;;;;;;;36.65;15.63;;;7.60;99.90;;;;;;4898253;29;20279;-83
2023/02/22 09:36:56;;;;;;;53.75;27.73;;;7.70;99.90;;;;;;4881327;29;20025;-89
2023/02/22 09:39:22;;;;;;;33.33;14.85;;;7.70;99.90;;;;;;4871604;29;20030;-85
2023/02/22 09:42:11;;;;;;;31.95;12.50;;;7.70;99.90;;;;;;4879915;29;20040;-83
2023/02/22 09:44:56;;;;;;;29.58;11.45;;;7.70;99.90;;;;;;4879272;29;20021;-82
2023/02/22 09:47:31;;;;;;;37.65;12.88;;;7.90;99.90;;;;;;4877626;29;20494;-79
2023/02/22 09:50:14;;;;;;;28.40;12.05;;;7.90;99.90;;;;;;4879357;29;20490;-79
2023/02/22 09:53:28;;;;;;;29.95;11.95;;;7.90;99.90;;;;;;4877041;29;20049;-80
2023/02/22 09:55:59;;;;;;;31.98;11.65;;;8.00;99.90;;;;;;4805259;29;20134;-79
2023/02/22 09:58:41;;;;;;;32.30;11.70;;;8.20;99.90;;;;;;4868669;29;20045;-80
2023/02/22 10:01:43;;;;;;;30.45;11.20;;;8.30;99.90;;;;;;4877678;29;20486;-79
2023/02/22 10:04:18;;;;;;;27.95;11.70;;;8.40;99.90;;;;;;4855188;29;20398;-76
2023/02/22 10:07:10;;;;;;;31.42;12.57;;;8.50;99.90;;;;;;4858428;29;20102;-77
2023/02/22 10:09:41;;;;;;;32.35;12.15;;;8.60;99.90;;;;;;4852011;29;20128;-78
2023/02/22 10:12:16;;;;;;;31.67;12.98;;;8.70;99.90;;;;;;4857768;29;20390;-76
2023/02/22 10:15:10;;;;;;;33.25;12.70;;;8.80;99.90;;;;;;4857048;29;20066;-77
2023/02/22 10:18:16;;;;;;;33.13;12.60;;;8.90;99.90;;;;;;4858009;29;20033;-77
2023/02/22 10:20:58;;;;;;;35.95;12.27;;;8.90;99.90;;;;;;4834454;29;20058;-78
2023/02/22 10:23:30;;;;;;;30.88;13.00;;;9.00;99.90;;;;;;4855289;29;20443;-78
2023/02/22 10:26:03;;;;;;;34.55;12.27;;;9.10;99.90;;;;;;4845743;29;20545;-78
2023/02/22 10:28:38;;;;;;;32.50;12.18;;;9.10;99.90;;;;;;4859738;29;20034;-77
2023/02/22 10:31:11;;;;;;;30.40;12.77;;;9.20;99.90;;;;;;4860987;29;20041;-77
2023/02/22 10:33:41;;;;;;;36.63;13.02;;;9.20;99.90;;;;;;4861569;29;20454;-78
2023/02/22 10:36:17;;;;;;;29.08;12.30;;;9.30;99.90;;;;;;4874589;29;20371;-77
2023/02/22 10:38:50;;;;;;;39.38;16.35;;;9.30;99.90;;;;;;4872057;29;20044;-77
2023/02/22 10:41:37;;;;;;;31.90;13.60;;;9.30;99.90;;;;;;4878688;29;20036;-77
2023/02/22 10:44:03;;;;;;;31.13;12.63;;;9.30;99.90;;;;;;4882096;29;20502;-76
2023/02/22 10:46:32;;;;;;;29.17;13.27;;;9.40;99.90;;;;;;4881732;29;20112;-77
2023/02/22 10:49:06;;;;;;;30.83;12.50;;;9.30;99.90;;;;;;4880896;29;20490;-77
2023/02/22 10:51:32;;;;;;;37.33;13.73;;;9.40;99.90;;;;;;4882068;29;20418;-77
2023/02/22 10:54:19;;;;;;;32.15;12.80;;;9.50;99.90;;;;;;4881941;29;20029;-77
2023/02/22 10:56:54;;;;;;;29.98;12.40;;;9.70;99.90;;;;;;4881011;29;20035;-77
2023/02/22 10:59:41;;;;;;;31.85;12.95;;;9.80;99.90;;;;;;4881922;29;20059;-78
2023/02/22 11:02:14;;;;;;;35.45;12.95;;;9.80;99.90;;;;;;4881604;29;20113;-78
2023/02/22 11:04:44;;;;;;;30.17;11.80;;;9.80;99.90;;;;;;4881586;29;20413;-77
2023/02/22 11:07:22;;;;;;;27.05;11.27;;;9.80;99.90;;;;;;4861046;29;20402;-77
2023/02/22 11:09:52;;;;;;;30.23;12.13;;;9.90;99.90;;;;;;4860977;29;20077;-76
2023/02/22 11:12:30;;;;;;;30.80;11.95;;;10.00;99.90;;;;;;4858241;29;20113;-77
2023/02/22 11:14:57;;;;;;;25.80;12.18;;;10.10;99.90;;;;;;4861041;29;20499;-77
2023/02/22 11:17:41;;;;;;;29.65;11.85;;;10.20;99.90;;;;;;4860999;29;20042;-77
2023/02/22 11:20:24;;;;;;;33.10;13.18;;;10.30;99.90;;;;;;4842459;29;20186;-77
2023/02/22 11:22:54;;;;;;;30.85;12.88;;;10.40;99.90;;;;;;4823681;29;20043;-78
2023/02/22 11:25:25;;;;;;;31.15;11.80;;;10.30;99.90;;;;;;4824161;29;20406;-77
2023/02/22 11:27:52;;;;;;;29.95;11.85;;;10.30;99.90;;;;;;4821476;29;20047;-76
2023/02/22 11:30:28;;;;;;;38.85;13.82;;;10.40;99.90;;;;;;4805136;29;20566;-77
2023/02/22 11:33:02;;;;;;;29.08;11.20;;;10.40;99.90;;;;;;4803732;29;20531;-77
2023/02/22 11:35:27;;;;;;;30.05;11.52;;;10.40;99.90;;;;;;4806381;29;20052;-77
2023/02/22 11:38:09;;;;;;;33.33;12.80;;;10.40;99.90;;;;;;4812255;29;20107;-75
2023/02/22 11:40:35;;;;;;;31.60;11.90;;;10.50;99.90;;;;;;4823800;29;20038;-77
2023/02/22 11:43:17;;;;;;;26.08;11.68;;;10.50;99.90;;;;;;4821668;29;20034;-77
2023/02/22 11:46:10;;;;;;;27.02;11.77;;;10.40;99.90;;;;;;4824111;29;20042;-76
2023/02/22 11:48:40;;;;;;;31.58;11.45;;;10.50;99.90;;;;;;4823679;29;20125;-76
2023/02/22 11:51:27;;;;;;;24.58;11.48;;;10.50;99.90;;;;;;4823617;29;20078;-77
2023/02/22 11:54:33;;;;;;;29.77;11.82;;;10.60;99.90;;;;;;4797689;29;20524;-77
2023/02/22 11:57:21;;;;;;;30.95;11.23;;;10.60;99.90;;;;;;4809835;29;20570;-77
2023/02/22 12:00:23;;;;;;;28.58;11.80;;;10.60;99.90;;;;;;4821198;29;20046;-77
2023/02/22 12:02:54;;;;;;;26.83;11.45;;;10.60;99.90;;;;;;4859888;29;20120;-77
2023/02/22 12:05:41;;;;;;;44.92;14.10;;;10.50;99.90;;;;;;4855836;29;20157;-76
2023/02/22 12:08:28;;;;;;;28.10;12.63;;;10.60;99.90;;;;;;4844290;29;20128;-76
2023/02/22 12:10:59;;;;;;;25.58;11.25;;;10.70;99.90;;;;;;4855299;29;20290;-77
2023/02/22 12:13:41;;;;;;;28.00;11.13;;;10.80;99.90;;;;;;4859957;29;20057;-77
2023/02/22 12:16:28;;;;;;;36.08;13.20;;;10.80;99.90;;;;;;4855038;29;20042;-77
2023/02/22 12:19:09;;;;;;;31.55;11.68;;;10.90;99.90;;;;;;4856109;29;20073;-76
2023/02/22 12:21:39;;;;;;;29.90;11.70;;;11.00;99.90;;;;;;4865219;29;20090;-77
2023/02/22 12:24:19;;;;;;;24.15;11.52;;;11.00;99.90;;;;;;4879576;29;20033;-76
2023/02/22 12:26:55;;;;;;;29.17;14.40;;;11.10;99.90;;;;;;4880211;29;20037;-76
2023/02/22 12:29:28;;;;;;;29.13;12.23;;;11.20;99.90;;;;;;4878747;29;20088;-77
2023/02/22 12:32:09;;;;;;;28.20;12.32;;;11.20;99.90;;;;;;4880552;29;20040;-77
2023/02/22 12:34:43;;;;;;;26.33;11.80;;;11.20;99.90;;;;;;4880167;29;20041;-76
2023/02/22 12:37:27;;;;;;;27.23;11.60;;;11.30;99.90;;;;;;4878040;29;20037;-77
2023/02/22 12:40:01;;;;;;;29.45;11.90;;;11.20;99.90;;;;;;4874792;29;20036;-76
2023/02/22 12:42:54;;;;;;;33.22;12.18;;;11.20;99.90;;;;;;4863867;29;20041;-75
2023/02/22 12:45:29;;;;;;;27.17;12.15;;;11.30;99.90;;;;;;4863053;29;20037;-76
2023/02/22 12:48:45;;;;;;;26.48;10.80;;;11.40;99.90;;;;;;4878987;29;20036;-76
2023/02/22 12:51:36;;;;;;;22.70;10.38;;;11.50;99.90;;;;;;4850263;29;20431;-76
2023/02/22 12:54:17;;;;;;;26.45;11.50;;;11.60;99.90;;;;;;4879901;29;20025;-77
2023/02/22 12:56:56;;;;;;;27.50;10.98;;;11.50;99.90;;;;;;4879785;29;20423;-76
2023/02/22 12:59:25;;;;;;;25.60;11.13;;;11.50;99.90;;;;;;4879524;29;20115;-78